Time;durP1;ratioP1;P1;durP2;ratioP2;P2;SDS_P1;SDS_P2;PMS_P1;PMS_P2;Temp;Humidity;BMP_temperature;BMP_pressure;BME280_temperature;BME280_humidity;BME280_pressure;Samples;Min_cycle;Max_cycle;Signal;HPM_P1;HPM_P2
2022/09/24 02:12:38;;;;;;;0.40;0.40;;;;;;;;;;7370975;19;20220;-73
2022/09/24 02:15:13;;;;;;;0.30;0.30;;;;;;;;;;7374480;19;20204;-73
2022/09/24 02:17:40;;;;;;;0.30;0.30;;;;;;;;;;7372203;19;20112;-73
2022/09/24 02:20:11;;;;;;;0.30;0.30;;;;;;;;;;7369991;19;20189;-73
2022/09/24 02:22:37;;;;;;;0.30;0.30;;;;;;;;;;7372015;19;20585;-73
2022/09/24 02:25:05;;;;;;;0.30;0.30;;;;;;;;;;7363106;19;20121;-73
2022/09/24 02:27:30;;;;;;;0.23;0.23;;;;;;;;;;7371601;19;20536;-73
2022/09/24 02:29:57;;;;;;;0.30;0.30;;;;;;;;;;7372259;19;20121;-73
2022/09/24 02:32:25;;;;;;;0.40;0.40;;;;;;;;;;7374000;19;20117;-73
2022/09/24 02:34:55;;;;;;;0.40;0.40;;;;;;;;;;7368600;19;20125;-73
2022/09/24 02:40:43;;;;;;;0.30;0.30;;;;;;;;;;7369410;19;20112;-72
2022/09/24 02:43:08;;;;;;;0.30;0.30;;;;;;;;;;7371955;19;20180;-73
2022/09/24 02:45:33;;;;;;;0.30;0.30;;;;;;;;;;7373902;19;20102;-73
2022/09/24 02:47:58;;;;;;;0.40;0.40;;;;;;;;;;7376471;19;20209;-73
2022/09/24 02:50:24;;;;;;;0.30;0.30;;;;;;;;;;7368423;19;20113;-73
2022/09/24 02:52:49;;;;;;;0.30;0.30;;;;;;;;;;7377636;19;20701;-73
2022/09/24 02:55:14;;;;;;;0.30;0.30;;;;;;;;;;7377235;19;20486;-73
2022/09/24 02:57:39;;;;;;;0.30;0.30;;;;;;;;;;7372320;19;20122;-73
2022/09/24 03:00:05;;;;;;;0.30;0.30;;;;;;;;;;7373600;19;20124;-73
2022/09/24 03:02:31;;;;;;;0.20;0.20;;;;;;;;;;7376336;19;20117;-73
2022/09/24 03:04:56;;;;;;;0.30;0.30;;;;;;;;;;7372926;19;20220;-73
2022/09/24 03:07:21;;;;;;;0.30;0.30;;;;;;;;;;7377260;19;20113;-71
2022/09/24 03:09:47;;;;;;;0.30;0.30;;;;;;;;;;7385801;19;20399;-71
2022/09/24 03:12:12;;;;;;;0.30;0.30;;;;;;;;;;7381656;19;20121;-71
2022/09/24 03:14:38;;;;;;;0.30;0.30;;;;;;;;;;7381383;19;20129;-71
2022/09/24 03:17:03;;;;;;;0.20;0.20;;;;;;;;;;7382493;19;20153;-71
2022/09/24 03:19:28;;;;;;;0.30;0.30;;;;;;;;;;7379979;19;20102;-71
2022/09/24 03:21:54;;;;;;;0.30;0.30;;;;;;;;;;7380980;19;20109;-71
2022/09/24 03:24:19;;;;;;;0.40;0.40;;;;;;;;;;7380763;19;20260;-73
2022/09/24 03:26:44;;;;;;;0.30;0.30;;;;;;;;;;7380302;19;20128;-73
2022/09/24 03:29:10;;;;;;;0.30;0.30;;;;;;;;;;7386360;19;20608;-73
2022/09/24 03:31:35;;;;;;;0.30;0.30;;;;;;;;;;7377395;19;20669;-73
2022/09/24 03:34:00;;;;;;;0.30;0.30;;;;;;;;;;7379353;19;20129;-71
2022/09/24 03:36:26;;;;;;;0.23;0.23;;;;;;;;;;7386026;19;20128;-71
2022/09/24 03:38:55;;;;;;;0.30;0.30;;;;;;;;;;7385084;19;20188;-72
2022/09/24 03:41:21;;;;;;;0.30;0.30;;;;;;;;;;7383853;19;20121;-71
2022/09/24 03:43:46;;;;;;;0.30;0.30;;;;;;;;;;7385030;19;20164;-71
2022/09/24 03:46:12;;;;;;;0.30;0.30;;;;;;;;;;7386449;19;20113;-71
2022/09/24 03:48:39;;;;;;;0.30;0.30;;;;;;;;;;7384865;19;20117;-71
2022/09/24 03:51:06;;;;;;;0.30;0.30;;;;;;;;;;7383311;19;20112;-71
2022/09/24 03:53:31;;;;;;;0.30;0.30;;;;;;;;;;7384327;19;20113;-71
2022/09/24 03:55:57;;;;;;;0.30;0.30;;;;;;;;;;7385787;19;20194;-71
2022/09/24 03:58:23;;;;;;;0.30;0.30;;;;;;;;;;7385033;19;20129;-71
2022/09/24 04:00:52;;;;;;;0.30;0.30;;;;;;;;;;7378097;19;20133;-73
2022/09/24 04:03:19;;;;;;;0.20;0.20;;;;;;;;;;7382025;19;20465;-73
2022/09/24 04:05:45;;;;;;;0.30;0.30;;;;;;;;;;7379915;19;20192;-73
2022/09/24 04:08:10;;;;;;;0.30;0.30;;;;;;;;;;7378742;19;20563;-71
2022/09/24 04:10:35;;;;;;;0.30;0.30;;;;;;;;;;7382623;19;20101;-72
2022/09/24 04:13:01;;;;;;;1.60;1.50;;;;;;;;;;7383382;19;20180;-71
2022/09/24 04:15:27;;;;;;;0.40;0.40;;;;;;;;;;7379937;19;20149;-72
2022/09/24 04:17:54;;;;;;;0.30;0.30;;;;;;;;;;7381938;19;20140;-71
2022/09/24 04:20:21;;;;;;;0.43;0.43;;;;;;;;;;7374176;19;20128;-71
2022/09/24 04:22:52;;;;;;;0.30;0.30;;;;;;;;;;7377044;19;20465;-72
2022/09/24 04:25:18;;;;;;;0.30;0.30;;;;;;;;;;7376702;19;20157;-72
2022/09/24 04:27:44;;;;;;;0.30;0.30;;;;;;;;;;7383803;19;20587;-72
2022/09/24 04:30:13;;;;;;;0.33;0.33;;;;;;;;;;7383664;19;20109;-72
2022/09/24 04:32:40;;;;;;;0.30;0.30;;;;;;;;;;7380112;19;20121;-72
2022/09/24 04:35:05;;;;;;;0.30;0.30;;;;;;;;;;7380196;19;20121;-71
2022/09/24 04:37:31;;;;;;;0.30;0.30;;;;;;;;;;7382161;19;20121;-72
2022/09/24 04:39:59;;;;;;;0.30;0.30;;;;;;;;;;7379509;19;20117;-71
2022/09/24 04:42:25;;;;;;;0.30;0.30;;;;;;;;;;7382839;19;20117;-72
2022/09/24 04:44:50;;;;;;;0.30;0.30;;;;;;;;;;7360597;19;20125;-71
2022/09/24 04:47:16;;;;;;;0.30;0.30;;;;;;;;;;7380305;19;20549;-71
2022/09/24 04:49:44;;;;;;;0.30;0.30;;;;;;;;;;7381195;19;20113;-71
2022/09/24 04:52:13;;;;;;;0.30;0.30;;;;;;;;;;7376698;19;20121;-72
2022/09/24 04:54:43;;;;;;;0.30;0.30;;;;;;;;;;7379344;19;20853;-72
2022/09/24 04:57:13;;;;;;;0.30;0.30;;;;;;;;;;7375753;19;20105;-72
2022/09/24 04:59:39;;;;;;;0.40;0.40;;;;;;;;;;7372346;19;20128;-71
2022/09/24 05:02:06;;;;;;;0.40;0.40;;;;;;;;;;7375735;19;20117;-71
2022/09/24 05:04:31;;;;;;;0.30;0.30;;;;;;;;;;7367893;19;20227;-71
2022/09/24 05:06:57;;;;;;;0.30;0.30;;;;;;;;;;7368037;19;20666;-71
2022/09/24 05:09:22;;;;;;;0.30;0.30;;;;;;;;;;7370750;19;20152;-71
2022/09/24 05:11:47;;;;;;;0.30;0.30;;;;;;;;;;7369905;19;20136;-71
2022/09/24 05:14:13;;;;;;;0.80;0.80;;;;;;;;;;7373395;19;20124;-71
2022/09/24 05:16:38;;;;;;;0.30;0.30;;;;;;;;;;7373578;19;20109;-71
2022/09/24 05:19:03;;;;;;;0.30;0.30;;;;;;;;;;7369464;19;20128;-71
2022/09/24 05:21:30;;;;;;;0.30;0.30;;;;;;;;;;7370321;19;20131;-71
2022/09/24 05:23:55;;;;;;;0.30;0.30;;;;;;;;;;7368512;19;20449;-71
2022/09/24 05:29:04;;;;;;;0.30;0.30;;;;;;;;;;7375099;19;20120;-71
2022/09/24 05:34:52;;;;;;;0.37;0.37;;;;;;;;;;7373666;19;20128;-72
2022/09/24 05:37:17;;;;;;;0.30;0.30;;;;;;;;;;7377025;19;20121;-71
2022/09/24 05:39:43;;;;;;;0.30;0.30;;;;;;;;;;7377915;19;20100;-72
2022/09/24 05:42:09;;;;;;;0.30;0.30;;;;;;;;;;7377588;19;20101;-71
2022/09/24 05:44:35;;;;;;;0.30;0.30;;;;;;;;;;7382157;19;20129;-71
2022/09/24 05:47:00;;;;;;;0.20;0.20;;;;;;;;;;7381997;19;20721;-72
2022/09/24 05:49:25;;;;;;;0.70;0.70;;;;;;;;;;7376376;19;20587;-71
2022/09/24 05:51:51;;;;;;;0.30;0.30;;;;;;;;;;7365670;19;20124;-71
2022/09/24 05:54:17;;;;;;;0.30;0.30;;;;;;;;;;7376112;19;20144;-71
2022/09/24 05:57:00;;;;;;;0.30;0.30;;;;;;;;;;7371843;19;20125;-71
2022/09/24 05:59:26;;;;;;;0.20;0.20;;;;;;;;;;7376449;19;20136;-71
2022/09/24 06:01:51;;;;;;;0.30;0.30;;;;;;;;;;7370938;19;20102;-71
2022/09/24 06:04:17;;;;;;;0.30;0.30;;;;;;;;;;7372383;19;20127;-72
2022/09/24 06:07:04;;;;;;;0.30;0.30;;;;;;;;;;7376925;19;20113;-71
2022/09/24 06:09:29;;;;;;;0.30;0.30;;;;;;;;;;7373411;19;20579;-71
2022/09/24 06:11:55;;;;;;;0.30;0.30;;;;;;;;;;7374647;19;20101;-71
2022/09/24 06:14:21;;;;;;;0.30;0.30;;;;;;;;;;7378620;19;20580;-71
2022/09/24 06:16:46;;;;;;;0.30;0.30;;;;;;;;;;7376939;19;20128;-71
2022/09/24 06:19:11;;;;;;;0.30;0.30;;;;;;;;;;7379272;19;20106;-72
2022/09/24 06:21:37;;;;;;;0.23;0.23;;;;;;;;;;7376381;19;20109;-71
2022/09/24 06:24:02;;;;;;;0.30;0.30;;;;;;;;;;7376064;19;20583;-71
2022/09/24 06:26:28;;;;;;;0.30;0.30;;;;;;;;;;7378576;19;20125;-71
2022/09/24 06:28:53;;;;;;;0.30;0.30;;;;;;;;;;7379822;19;20102;-72
2022/09/24 06:31:19;;;;;;;0.27;0.27;;;;;;;;;;7373119;19;20133;-71
2022/09/24 06:33:44;;;;;;;0.30;0.30;;;;;;;;;;7376122;19;20118;-71
2022/09/24 06:36:09;;;;;;;0.20;0.20;;;;;;;;;;7378675;19;20173;-71
2022/09/24 06:38:41;;;;;;;0.30;0.30;;;;;;;;;;7378111;19;20105;-71
2022/09/24 06:41:06;;;;;;;0.30;0.30;;;;;;;;;;7376824;19;20117;-71
2022/09/24 06:43:32;;;;;;;0.30;0.30;;;;;;;;;;7383929;19;20560;-71
2022/09/24 06:45:58;;;;;;;0.20;0.20;;;;;;;;;;7381238;19;20121;-71
2022/09/24 06:48:25;;;;;;;0.30;0.30;;;;;;;;;;7387806;19;20595;-71
2022/09/24 06:50:53;;;;;;;0.30;0.30;;;;;;;;;;7382701;19;20882;-70
2022/09/24 06:53:19;;;;;;;0.27;0.27;;;;;;;;;;7377524;19;20159;-71
2022/09/24 06:55:45;;;;;;;0.30;0.30;;;;;;;;;;7375747;19;20584;-71
2022/09/24 06:58:16;;;;;;;0.30;0.30;;;;;;;;;;7371615;19;20128;-71
2022/09/24 07:00:41;;;;;;;0.30;0.30;;;;;;;;;;7371277;19;20137;-71
2022/09/24 07:03:12;;;;;;;0.30;0.30;;;;;;;;;;7380842;19;20125;-71
2022/09/24 07:05:37;;;;;;;0.30;0.30;;;;;;;;;;7380344;19;20101;-71
2022/09/24 07:08:03;;;;;;;0.37;0.37;;;;;;;;;;7367729;19;20627;-71
2022/09/24 07:10:28;;;;;;;0.30;0.30;;;;;;;;;;7379320;19;20128;-71
2022/09/24 07:12:53;;;;;;;0.30;0.30;;;;;;;;;;7378722;19;20147;-71
2022/09/24 07:15:19;;;;;;;0.30;0.30;;;;;;;;;;7378135;19;20240;-71
2022/09/24 07:17:44;;;;;;;0.30;0.30;;;;;;;;;;7378860;19;20133;-71
2022/09/24 07:20:10;;;;;;;0.30;0.30;;;;;;;;;;7383697;19;20160;-71
2022/09/24 07:22:39;;;;;;;0.30;0.30;;;;;;;;;;7385768;19;20142;-71
2022/09/24 07:25:07;;;;;;;0.30;0.30;;;;;;;;;;7365543;19;20122;-71
2022/09/24 07:27:33;;;;;;;0.30;0.30;;;;;;;;;;7370704;19;20708;-71
2022/09/24 07:29:58;;;;;;;0.30;0.30;;;;;;;;;;7376623;19;20155;-71
2022/09/24 07:32:24;;;;;;;0.30;0.30;;;;;;;;;;7372630;19;20455;-71
2022/09/24 07:34:49;;;;;;;0.40;0.40;;;;;;;;;;7374188;19;20523;-71
2022/09/24 07:37:15;;;;;;;0.30;0.30;;;;;;;;;;7382543;19;20121;-71
2022/09/24 07:39:40;;;;;;;0.30;0.30;;;;;;;;;;7386279;19;20125;-73
2022/09/24 07:42:06;;;;;;;0.30;0.30;;;;;;;;;;7385768;19;20146;-73
2022/09/24 07:44:31;;;;;;;0.30;0.30;;;;;;;;;;7382997;19;20608;-71
2022/09/24 07:46:57;;;;;;;0.30;0.30;;;;;;;;;;7379312;19;20140;-71
2022/09/24 07:49:23;;;;;;;0.30;0.30;;;;;;;;;;7385614;19;20528;-71
2022/09/24 07:51:48;;;;;;;0.30;0.30;;;;;;;;;;7381476;19;20117;-71
2022/09/24 07:54:14;;;;;;;0.30;0.30;;;;;;;;;;7381802;19;20152;-71
2022/09/24 07:56:39;;;;;;;0.30;0.30;;;;;;;;;;7385143;19;20102;-71
2022/09/24 07:59:06;;;;;;;0.30;0.30;;;;;;;;;;7380202;19;20109;-71
2022/09/24 08:01:32;;;;;;;0.30;0.30;;;;;;;;;;7383183;19;20113;-71
2022/09/24 08:03:58;;;;;;;0.30;0.30;;;;;;;;;;7386965;19;20133;-71
2022/09/24 08:06:23;;;;;;;0.30;0.30;;;;;;;;;;7384100;19;20124;-71
2022/09/24 08:08:49;;;;;;;0.30;0.30;;;;;;;;;;7384343;19;20105;-73
2022/09/24 08:11:16;;;;;;;0.30;0.30;;;;;;;;;;7380482;19;20579;-73
2022/09/24 08:13:41;;;;;;;0.27;0.27;;;;;;;;;;7384731;19;20204;-73
2022/09/24 08:16:07;;;;;;;0.20;0.20;;;;;;;;;;7384219;19;20520;-73
2022/09/24 08:18:32;;;;;;;0.30;0.30;;;;;;;;;;7384484;19;20164;-73
2022/09/24 08:21:02;;;;;;;0.30;0.30;;;;;;;;;;7383893;19;20142;-71
2022/09/24 08:23:27;;;;;;;0.30;0.30;;;;;;;;;;7384042;19;20220;-71
2022/09/24 08:25:56;;;;;;;0.30;0.30;;;;;;;;;;7376244;19;20125;-71
2022/09/24 08:28:21;;;;;;;0.47;0.47;;;;;;;;;;7380974;19;20467;-71
2022/09/24 08:30:47;;;;;;;0.30;0.30;;;;;;;;;;7382198;19;20116;-71
2022/09/24 08:33:14;;;;;;;0.37;0.37;;;;;;;;;;7380500;19;20117;-72
2022/09/24 08:35:39;;;;;;;0.23;0.23;;;;;;;;;;7377627;19;20501;-72
2022/09/24 08:38:05;;;;;;;0.30;0.30;;;;;;;;;;7381882;19;20109;-72
2022/09/24 08:40:35;;;;;;;0.30;0.30;;;;;;;;;;7377878;19;20993;-72
2022/09/24 08:43:03;;;;;;;0.30;0.30;;;;;;;;;;7379844;19;20134;-72
2022/09/24 08:48:20;;;;;;;0.30;0.30;;;;;;;;;;7379918;19;20455;-72
2022/09/24 08:50:56;;;;;;;0.30;0.30;;;;;;;;;;7376770;19;20600;-71
2022/09/24 08:53:28;;;;;;;0.30;0.30;;;;;;;;;;7382631;19;20438;-72
2022/09/24 08:55:59;;;;;;;0.30;0.30;;;;;;;;;;7376141;19;20192;-71
2022/09/24 08:58:49;;;;;;;0.30;0.30;;;;;;;;;;7376161;19;20475;-71
2022/09/24 09:01:29;;;;;;;0.30;0.30;;;;;;;;;;7373778;19;20654;-71
2022/09/24 09:03:59;;;;;;;0.30;0.30;;;;;;;;;;7372790;19;20128;-71
2022/09/24 09:06:38;;;;;;;0.30;0.30;;;;;;;;;;7374079;19;20108;-72
2022/09/24 09:09:22;;;;;;;0.60;0.60;;;;;;;;;;7374088;19;20134;-72
2022/09/24 09:11:56;;;;;;;0.40;0.40;;;;;;;;;;7368642;19;20197;-72
2022/09/24 09:14:35;;;;;;;0.30;0.30;;;;;;;;;;7372259;19;20121;-72
2022/09/24 09:17:15;;;;;;;0.30;0.30;;;;;;;;;;7376466;19;20116;-72
2022/09/24 09:19:42;;;;;;;0.30;0.30;;;;;;;;;;7378482;19;20113;-72
2022/09/24 09:22:15;;;;;;;0.30;0.30;;;;;;;;;;7376941;19;20117;-74
2022/09/24 09:24:47;;;;;;;0.40;0.40;;;;;;;;;;7380214;19;20158;-72
2022/09/24 09:27:14;;;;;;;0.30;0.30;;;;;;;;;;7383103;19;20122;-73
2022/09/24 09:29:40;;;;;;;0.35;0.35;;;;;;;;;;7379351;19;20128;-72
2022/09/24 09:32:34;;;;;;;0.52;0.52;;;;;;;;;;7380196;19;20579;-72
2022/09/24 09:35:11;;;;;;;0.30;0.30;;;;;;;;;;7378044;19;20192;-72
2022/09/24 09:37:52;;;;;;;0.30;0.30;;;;;;;;;;7375204;19;20211;-73
2022/09/24 09:40:30;;;;;;;0.30;0.30;;;;;;;;;;7377163;19;20115;-73
2022/09/24 09:43:09;;;;;;;0.30;0.30;;;;;;;;;;7377781;19;20626;-73
2022/09/24 09:46:00;;;;;;;0.30;0.30;;;;;;;;;;7375066;19;20121;-73
2022/09/24 09:48:40;;;;;;;0.40;0.40;;;;;;;;;;7378183;19;20121;-72
2022/09/24 09:51:05;;;;;;;0.30;0.30;;;;;;;;;;7372490;19;20105;-72
2022/09/24 09:53:31;;;;;;;0.30;0.30;;;;;;;;;;7364420;19;20175;-73
2022/09/24 09:55:58;;;;;;;0.40;0.40;;;;;;;;;;7371021;19;20454;-72
2022/09/24 10:01:54;;;;;;;0.40;0.40;;;;;;;;;;7374971;19;20108;-72
2022/09/24 10:04:36;;;;;;;0.30;0.30;;;;;;;;;;7379519;19;20246;-73
2022/09/24 10:07:10;;;;;;;0.30;0.30;;;;;;;;;;7380780;19;20205;-73
2022/09/24 10:09:37;;;;;;;0.30;0.30;;;;;;;;;;7382327;19;20508;-73
2022/09/24 10:12:25;;;;;;;0.30;0.30;;;;;;;;;;7376686;19;20122;-73
2022/09/24 10:15:02;;;;;;;0.30;0.30;;;;;;;;;;7378026;19;20153;-72
2022/09/24 10:17:37;;;;;;;0.30;0.30;;;;;;;;;;7375880;19;20101;-72
2022/09/24 10:20:16;;;;;;;0.30;0.30;;;;;;;;;;7376393;19;20192;-72
2022/09/24 10:22:49;;;;;;;0.30;0.30;;;;;;;;;;7384711;19;20128;-72
2022/09/24 10:25:17;;;;;;;0.30;0.30;;;;;;;;;;7384484;19;20184;-72
2022/09/24 10:27:42;;;;;;;0.30;0.30;;;;;;;;;;7387190;19;20744;-72
2022/09/24 10:32:59;;;;;;;0.30;0.30;;;;;;;;;;7381598;19;20111;-73
2022/09/24 10:35:32;;;;;;;0.30;0.30;;;;;;;;;;7381544;19;20647;-72
2022/09/24 10:37:59;;;;;;;0.30;0.30;;;;;;;;;;7382983;19;20123;-73
2022/09/24 10:40:29;;;;;;;0.20;0.20;;;;;;;;;;7383496;19;20164;-73
2022/09/24 10:43:04;;;;;;;0.30;0.30;;;;;;;;;;7385599;19;20196;-72
2022/09/24 10:45:39;;;;;;;0.30;0.30;;;;;;;;;;7385212;19;20105;-73
2022/09/24 10:48:17;;;;;;;0.30;0.30;;;;;;;;;;7384792;19;20121;-72
2022/09/24 10:50:53;;;;;;;0.30;0.30;;;;;;;;;;7379773;19;20132;-72
2022/09/24 10:53:38;;;;;;;0.30;0.30;;;;;;;;;;7388769;19;20116;-73
2022/09/24 10:56:39;;;;;;;0.50;0.50;;;;;;;;;;7389154;19;20560;-73
2022/09/24 10:59:22;;;;;;;0.30;0.30;;;;;;;;;;7389276;19;20132;-73
2022/09/24 11:02:06;;;;;;;0.30;0.30;;;;;;;;;;7389967;19;20128;-73
2022/09/24 11:05:18;;;;;;;0.30;0.30;;;;;;;;;;7391625;19;20125;-73
2022/09/24 11:08:39;;;;;;;0.20;0.20;;;;;;;;;;7393314;19;20172;-73
2022/09/24 11:11:19;;;;;;;0.30;0.30;;;;;;;;;;7390546;19;20113;-72
2022/09/24 11:14:21;;;;;;;0.65;0.65;;;;;;;;;;7389228;19;20125;-72
2022/09/24 11:17:08;;;;;;;0.30;0.30;;;;;;;;;;7382726;19;20117;-73
2022/09/24 11:20:13;;;;;;;0.30;0.30;;;;;;;;;;7385553;19;20117;-72
2022/09/24 11:22:50;;;;;;;0.32;0.32;;;;;;;;;;7379772;19;20132;-72
2022/09/24 11:25:16;;;;;;;0.32;0.32;;;;;;;;;;7385968;19;20120;-73
2022/09/24 11:28:04;;;;;;;0.30;0.30;;;;;;;;;;7387451;19;20112;-72
2022/09/24 11:30:47;;;;;;;0.30;0.30;;;;;;;;;;7389369;19;20116;-72
2022/09/24 11:33:20;;;;;;;0.30;0.30;;;;;;;;;;7388142;19;20164;-72
2022/09/24 11:35:51;;;;;;;0.30;0.30;;;;;;;;;;7383818;19;20460;-72
2022/09/24 11:38:17;;;;;;;0.20;0.20;;;;;;;;;;7389745;19;20125;-72
2022/09/24 11:40:56;;;;;;;0.30;0.30;;;;;;;;;;7388115;19;20563;-72
2022/09/24 11:43:42;;;;;;;0.30;0.30;;;;;;;;;;7388599;19;20112;-72
2022/09/24 11:46:11;;;;;;;0.40;0.40;;;;;;;;;;7387225;19;20113;-72
2022/09/24 11:48:58;;;;;;;0.30;0.30;;;;;;;;;;7391043;19;20120;-72
2022/09/24 11:51:28;;;;;;;0.30;0.30;;;;;;;;;;7384080;19;20117;-72
2022/09/24 11:54:22;;;;;;;0.30;0.30;;;;;;;;;;7388337;19;20136;-72
2022/09/24 12:03:23;;;;;;;0.30;0.30;;;;;;;;;;7369402;19;20184;-72
2022/09/24 12:05:58;;;;;;;0.30;0.30;;;;;;;;;;7383397;19;20204;-72
2022/09/24 12:08:38;;;;;;;0.30;0.30;;;;;;;;;;7387351;19;20113;-72
2022/09/24 12:11:35;;;;;;;0.30;0.30;;;;;;;;;;7385073;19;20112;-72
2022/09/24 12:14:11;;;;;;;0.30;0.30;;;;;;;;;;7384790;19;20230;-71
2022/09/24 12:16:38;;;;;;;0.30;0.30;;;;;;;;;;7386054;19;20104;-74
2022/09/24 12:19:17;;;;;;;0.30;0.30;;;;;;;;;;7387476;19;20139;-74
2022/09/24 12:21:44;;;;;;;0.30;0.30;;;;;;;;;;7384993;19;20117;-74
2022/09/24 12:24:15;;;;;;;0.30;0.30;;;;;;;;;;7385697;19;20189;-73
2022/09/24 12:26:41;;;;;;;0.30;0.30;;;;;;;;;;7385921;19;20225;-74
2022/09/24 12:33:17;;;;;;;0.30;0.30;;;;;;;;;;7384991;19;20173;-74
2022/09/24 12:36:06;;;;;;;0.30;0.30;;;;;;;;;;7384145;19;20128;-74
2022/09/24 12:38:37;;;;;;;0.30;0.30;;;;;;;;;;7383792;19;20128;-74
2022/09/24 12:41:37;;;;;;;0.30;0.30;;;;;;;;;;7384343;19;20678;-74
2022/09/24 12:44:11;;;;;;;0.30;0.30;;;;;;;;;;7386350;19;20121;-74
2022/09/24 12:46:43;;;;;;;0.30;0.30;;;;;;;;;;7381432;19;20105;-74
2022/09/24 12:49:18;;;;;;;0.85;0.85;;;;;;;;;;7382186;19;20595;-73
2022/09/24 12:51:43;;;;;;;0.38;0.38;;;;;;;;;;7384427;19;20124;-74
2022/09/24 12:54:23;;;;;;;0.22;0.22;;;;;;;;;;7374160;19;20161;-73
2022/09/24 12:56:48;;;;;;;0.30;0.30;;;;;;;;;;7371775;19;20144;-74
2022/09/24 12:59:27;;;;;;;0.30;0.30;;;;;;;;;;7378464;19;20093;-74
2022/09/24 13:01:53;;;;;;;0.30;0.30;;;;;;;;;;7373317;19;20116;-74
2022/09/24 13:04:18;;;;;;;0.30;0.30;;;;;;;;;;7373731;19;20121;-74
2022/09/24 13:06:47;;;;;;;0.22;0.22;;;;;;;;;;7380835;19;20137;-73
2022/09/24 13:09:37;;;;;;;0.30;0.30;;;;;;;;;;7378999;19;20118;-74
2022/09/24 13:12:04;;;;;;;0.30;0.30;;;;;;;;;;7383980;19;20109;-74
2022/09/24 13:14:31;;;;;;;0.30;0.30;;;;;;;;;;7382760;19;20121;-74
2022/09/24 13:16:57;;;;;;;0.30;0.30;;;;;;;;;;7385302;19;20106;-74
2022/09/24 13:19:30;;;;;;;0.30;0.30;;;;;;;;;;7384319;19;20108;-74
2022/09/24 13:21:57;;;;;;;0.30;0.30;;;;;;;;;;7385210;19;20454;-74
2022/09/24 13:33:22;;;;;;;0.30;0.30;;;;;;;;;;7385378;19;20460;-71
2022/09/24 13:36:13;;;;;;;0.30;0.30;;;;;;;;;;7384586;19;20141;-71
2022/09/24 13:39:16;;;;;;;0.30;0.30;;;;;;;;;;7375318;19;20113;-73
2022/09/24 13:47:54;;;;;;;0.30;0.30;;;;;;;;;;7380693;19;20183;-73
2022/09/24 13:50:37;;;;;;;0.45;0.45;;;;;;;;;;7375535;19;20137;-73
2022/09/24 13:53:15;;;;;;;0.47;0.47;;;;;;;;;;7379953;19;20136;-73
2022/09/24 13:55:44;;;;;;;0.30;0.30;;;;;;;;;;7374507;19;20128;-73
2022/09/24 13:58:37;;;;;;;0.30;0.30;;;;;;;;;;7377173;19;20634;-73
2022/09/24 14:01:05;;;;;;;0.30;0.30;;;;;;;;;;7365478;19;20101;-73
2022/09/24 14:03:33;;;;;;;0.30;0.30;;;;;;;;;;7371295;19;20478;-73
2022/09/24 14:05:59;;;;;;;0.20;0.20;;;;;;;;;;7375404;19;20444;-70
2022/09/24 14:08:26;;;;;;;0.30;0.30;;;;;;;;;;7370215;19;20121;-74
2022/09/24 14:11:03;;;;;;;0.30;0.30;;;;;;;;;;7370082;19;20180;-73
2022/09/24 14:13:28;;;;;;;0.30;0.30;;;;;;;;;;7358594;19;20129;-73
2022/09/24 16:35:32;;;;;;;0.30;0.30;;;;;;;;;;7377885;19;20196;-90
2022/09/24 16:37:57;;;;;;;0.40;0.40;;;;;;;;;;7380693;19;20604;-90
2022/09/24 16:40:23;;;;;;;0.30;0.30;;;;;;;;;;7377056;19;20157;-91
2022/09/24 16:42:48;;;;;;;0.30;0.30;;;;;;;;;;7374461;19;20110;-91
2022/09/24 16:45:13;;;;;;;0.30;0.30;;;;;;;;;;7376354;19;20118;-91
2022/09/24 16:47:38;;;;;;;0.30;0.30;;;;;;;;;;7378809;19;20162;-91
2022/09/24 16:50:05;;;;;;;0.30;0.30;;;;;;;;;;7378875;19;20157;-92
2022/09/24 16:52:30;;;;;;;0.25;0.25;;;;;;;;;;7362776;19;20682;-92
2022/09/24 16:54:56;;;;;;;0.30;0.30;;;;;;;;;;7377622;19;20188;-93
2022/09/24 16:57:22;;;;;;;0.30;0.30;;;;;;;;;;7385111;19;20137;-95
2022/09/24 16:59:47;;;;;;;0.30;0.30;;;;;;;;;;7396483;19;20549;-95
2022/09/24 17:02:13;;;;;;;0.30;0.30;;;;;;;;;;7391533;19;20538;-94
2022/09/24 17:04:38;;;;;;;0.30;0.30;;;;;;;;;;7378206;19;20526;-73
2022/09/24 17:07:04;;;;;;;0.30;0.30;;;;;;;;;;7375578;19;20116;-73
2022/09/24 17:12:13;;;;;;;0.45;0.45;;;;;;;;;;7362653;19;20465;-73
2022/09/24 17:14:38;;;;;;;0.30;0.30;;;;;;;;;;7365040;19;20117;-73
2022/09/24 17:17:04;;;;;;;0.30;0.30;;;;;;;;;;7362789;19;20113;-73
2022/09/24 17:19:30;;;;;;;0.30;0.30;;;;;;;;;;7374120;19;20112;-74
2022/09/24 17:21:55;;;;;;;0.30;0.30;;;;;;;;;;7366639;19;20621;-73
2022/09/24 17:24:21;;;;;;;0.30;0.30;;;;;;;;;;7377737;19;20159;-73
2022/09/24 17:26:46;;;;;;;0.60;0.60;;;;;;;;;;7376704;19;20128;-73
2022/09/24 17:29:11;;;;;;;0.30;0.30;;;;;;;;;;7373383;19;20481;-73
2022/09/24 17:31:37;;;;;;;0.52;0.52;;;;;;;;;;7363101;19;20587;-73
2022/09/24 17:34:09;;;;;;;0.35;0.35;;;;;;;;;;7370791;19;20720;-73
2022/09/24 17:36:35;;;;;;;0.85;0.85;;;;;;;;;;7373429;19;20098;-73
2022/09/24 17:39:00;;;;;;;0.20;0.20;;;;;;;;;;7374915;19;20129;-74
2022/09/24 17:41:27;;;;;;;0.30;0.30;;;;;;;;;;7376911;19;20120;-74
2022/09/24 17:43:55;;;;;;;0.30;0.30;;;;;;;;;;7378670;19;20128;-73
2022/09/24 17:47:10;;;;;;;0.30;0.30;;;;;;;;;;7377734;19;20117;-73
2022/09/24 17:49:35;;;;;;;0.30;0.30;;;;;;;;;;7372147;19;20550;-74
2022/09/24 17:52:02;;;;;;;0.30;0.30;;;;;;;;;;7371244;19;20165;-73
2022/09/24 17:54:27;;;;;;;0.20;0.20;;;;;;;;;;7358697;19;20198;-73
2022/09/24 17:56:53;;;;;;;0.30;0.30;;;;;;;;;;7366259;19;20121;-74
2022/09/24 17:59:18;;;;;;;0.30;0.30;;;;;;;;;;7373298;19;20145;-74
2022/09/24 18:01:44;;;;;;;0.50;0.50;;;;;;;;;;7381839;19;20116;-73
2022/09/24 18:04:14;;;;;;;0.20;0.20;;;;;;;;;;7376292;19;20156;-74
2022/09/24 18:06:42;;;;;;;0.30;0.30;;;;;;;;;;7378178;19;20480;-74
2022/09/24 18:09:08;;;;;;;0.30;0.30;;;;;;;;;;7383143;19;20567;-73
2022/09/24 18:11:46;;;;;;;0.20;0.20;;;;;;;;;;7378178;19;20163;-73
2022/09/24 18:14:15;;;;;;;0.20;0.20;;;;;;;;;;7377797;19;20135;-73
2022/09/24 18:16:41;;;;;;;0.30;0.30;;;;;;;;;;7379961;19;20132;-73
2022/09/24 18:19:07;;;;;;;0.20;0.20;;;;;;;;;;7377742;19;20133;-72
2022/09/24 18:21:33;;;;;;;0.30;0.30;;;;;;;;;;7378531;19;20559;-72
2022/09/24 18:23:59;;;;;;;0.30;0.30;;;;;;;;;;7373376;19;20178;-73
2022/09/24 18:26:33;;;;;;;0.30;0.30;;;;;;;;;;7380273;19;20611;-73
2022/09/24 18:29:39;;;;;;;0.30;0.30;;;;;;;;;;7383329;19;20152;-73
2022/09/24 18:32:06;;;;;;;0.30;0.30;;;;;;;;;;7379653;19;20121;-73
2022/09/24 18:34:31;;;;;;;0.30;0.30;;;;;;;;;;7381341;19;20692;-73
2022/09/24 18:36:56;;;;;;;0.30;0.30;;;;;;;;;;7379883;19;20126;-73
2022/09/24 18:39:22;;;;;;;0.30;0.30;;;;;;;;;;7370886;19;20125;-73
2022/09/24 18:41:47;;;;;;;0.30;0.30;;;;;;;;;;7366072;19;20537;-73
2022/09/24 18:44:12;;;;;;;0.30;0.30;;;;;;;;;;7363951;19;20498;-73
2022/09/24 18:46:38;;;;;;;0.30;0.30;;;;;;;;;;7364533;19;20528;-73
2022/09/24 18:49:05;;;;;;;0.30;0.30;;;;;;;;;;7360695;19;20133;-73
2022/09/24 18:57:27;;;;;;;0.60;0.60;;;;;;;;;;7366126;19;20188;-73
2022/09/24 18:59:57;;;;;;;0.30;0.30;;;;;;;;;;7379815;19;20113;-73
2022/09/24 19:02:25;;;;;;;0.20;0.20;;;;;;;;;;7383317;19;20129;-73
2022/09/24 19:04:52;;;;;;;0.30;0.30;;;;;;;;;;7380772;19;20137;-73
2022/09/24 19:07:21;;;;;;;0.30;0.30;;;;;;;;;;7374727;19;20147;-73
2022/09/24 19:09:52;;;;;;;0.30;0.30;;;;;;;;;;7385399;19;20208;-74
2022/09/24 19:12:18;;;;;;;0.27;0.27;;;;;;;;;;7381395;19;20643;-73
2022/09/24 19:14:43;;;;;;;0.30;0.30;;;;;;;;;;7384843;19;20157;-73
2022/09/24 19:17:11;;;;;;;0.53;0.53;;;;;;;;;;7382225;19;20131;-73
2022/09/24 19:19:44;;;;;;;0.30;0.30;;;;;;;;;;7381548;19;20121;-73
2022/09/24 19:22:10;;;;;;;0.30;0.30;;;;;;;;;;7379401;19;20117;-73
2022/09/24 19:24:35;;;;;;;0.33;0.33;;;;;;;;;;7380089;19;20142;-73
2022/09/24 19:27:01;;;;;;;0.30;0.30;;;;;;;;;;7384068;19;20133;-73
2022/09/24 19:29:29;;;;;;;0.30;0.30;;;;;;;;;;7384370;19;20664;-73
2022/09/24 19:31:54;;;;;;;0.30;0.30;;;;;;;;;;7382252;19;20129;-73
2022/09/24 19:34:20;;;;;;;0.30;0.30;;;;;;;;;;7380728;19;20129;-73
2022/09/24 19:36:46;;;;;;;0.30;0.30;;;;;;;;;;7386923;19;20117;-73
2022/09/24 19:39:15;;;;;;;0.30;0.30;;;;;;;;;;7385290;19;20599;-73
2022/09/24 19:42:15;;;;;;;0.20;0.20;;;;;;;;;;7382942;19;20125;-73
2022/09/24 19:44:42;;;;;;;0.30;0.30;;;;;;;;;;7378428;19;20132;-73
2022/09/24 19:47:08;;;;;;;0.30;0.30;;;;;;;;;;7386686;19;20125;-73
2022/09/24 19:49:33;;;;;;;0.30;0.30;;;;;;;;;;7365716;19;20713;-73
2022/09/24 19:52:03;;;;;;;0.30;0.30;;;;;;;;;;7377664;19;20486;-74
2022/09/24 19:54:31;;;;;;;0.30;0.30;;;;;;;;;;7379408;19;20497;-73
2022/09/24 19:56:59;;;;;;;0.30;0.30;;;;;;;;;;7382529;19;20125;-73
2022/09/24 19:59:29;;;;;;;0.30;0.30;;;;;;;;;;7378023;19;20114;-74
2022/09/24 20:02:09;;;;;;;0.30;0.30;;;;;;;;;;7377832;19;20128;-73
2022/09/24 20:04:40;;;;;;;0.30;0.30;;;;;;;;;;7378696;19;20131;-74
2022/09/24 20:07:08;;;;;;;0.30;0.30;;;;;;;;;;7380809;19;20137;-74
2022/09/24 20:09:36;;;;;;;0.97;0.97;;;;;;;;;;7380424;19;20109;-74
2022/09/24 20:12:03;;;;;;;0.30;0.30;;;;;;;;;;7383094;19;20135;-74
2022/09/24 20:14:31;;;;;;;0.20;0.20;;;;;;;;;;7378680;19;20529;-74
2022/09/24 20:16:56;;;;;;;0.30;0.30;;;;;;;;;;7384040;19;20499;-74
2022/09/24 20:19:21;;;;;;;0.30;0.30;;;;;;;;;;7375996;19;20109;-73
2022/09/24 20:21:47;;;;;;;0.30;0.30;;;;;;;;;;7380306;19;20129;-74
2022/09/24 20:24:12;;;;;;;0.20;0.20;;;;;;;;;;7381783;19;20156;-73